createdAt,value
2022-08-29T00:00:06.604Z,982.09
2022-08-29T00:01:06.530Z,982.03
2022-08-29T00:02:06.681Z,982.00
2022-08-29T00:03:08.478Z,982.02
2022-08-29T00:04:06.707Z,981.99
2022-08-29T00:05:06.584Z,982.00
2022-08-29T00:06:06.464Z,982.04
2022-08-29T00:07:06.464Z,982.01
2022-08-29T00:08:06.437Z,982.01
2022-08-29T00:09:06.477Z,982.06
2022-08-29T00:10:06.636Z,982.00
2022-08-29T00:11:06.514Z,982.02
2022-08-29T00:12:06.604Z,982.00
2022-08-29T00:13:06.469Z,982.04
2022-08-29T00:14:06.632Z,982.00
2022-08-29T00:15:06.449Z,982.02
2022-08-29T00:16:06.474Z,982.05
2022-08-29T00:17:06.449Z,982.02
2022-08-29T00:18:06.305Z,982.04
2022-08-29T00:19:06.470Z,982.06
2022-08-29T00:20:06.309Z,982.08
2022-08-29T00:21:06.449Z,982.04
2022-08-29T00:22:06.379Z,982.01
2022-08-29T00:23:06.448Z,982.03
2022-08-29T00:24:06.285Z,981.97
2022-08-29T00:25:06.465Z,982.01
2022-08-29T00:26:06.366Z,982.02
2022-08-29T00:27:06.464Z,982.03
2022-08-29T00:28:06.295Z,982.04
2022-08-29T00:29:06.164Z,982.05
2022-08-29T00:30:06.134Z,982.07
2022-08-29T00:31:06.197Z,982.08
2022-08-29T00:32:06.386Z,982.09
2022-08-29T00:33:06.134Z,982.11
2022-08-29T00:34:06.078Z,982.12
2022-08-29T00:35:06.139Z,982.17
2022-08-29T00:36:06.291Z,982.10
2022-08-29T00:37:06.249Z,982.15
2022-08-29T00:38:06.029Z,982.16
2022-08-29T00:39:09.225Z,982.16
2022-08-29T00:40:06.362Z,982.09
2022-08-29T00:41:06.130Z,982.10
2022-08-29T00:42:05.981Z,982.14
2022-08-29T00:43:06.031Z,982.20
2022-08-29T00:44:05.980Z,982.13
2022-08-29T00:45:05.965Z,982.22
2022-08-29T00:46:05.993Z,982.18
2022-08-29T00:47:06.135Z,982.14
2022-08-29T00:48:06.095Z,982.17
2022-08-29T00:49:06.135Z,982.13
2022-08-29T00:50:05.975Z,982.08
2022-08-29T00:51:05.857Z,982.12
2022-08-29T00:52:05.994Z,982.05
2022-08-29T00:53:05.825Z,982.07
2022-08-29T00:54:05.854Z,982.05
2022-08-29T00:55:05.809Z,982.05
2022-08-29T00:56:06.019Z,982.04
2022-08-29T00:57:05.800Z,981.96
2022-08-29T00:58:05.970Z,982.00
2022-08-29T00:59:05.889Z,982.03
2022-08-29T01:00:05.729Z,982.04
2022-08-29T01:01:05.911Z,982.03
2022-08-29T01:02:05.741Z,982.03
2022-08-29T01:03:05.805Z,981.98
2022-08-29T01:04:05.740Z,982.06
2022-08-29T01:05:05.660Z,982.02
2022-08-29T01:06:05.683Z,982.02
2022-08-29T01:07:05.816Z,982.01
2022-08-29T01:08:05.655Z,982.04
2022-08-29T01:09:05.685Z,981.99
2022-08-29T01:10:13.785Z,981.98
2022-08-29T01:11:05.615Z,982.00
2022-08-29T01:12:05.644Z,982.05
2022-08-29T01:13:05.557Z,981.99
2022-08-29T01:14:05.664Z,982.00
2022-08-29T01:15:05.585Z,982.01
2022-08-29T01:16:05.703Z,982.01
2022-08-29T01:17:05.500Z,981.99
2022-08-29T01:18:05.665Z,981.97
2022-08-29T01:19:05.511Z,982.01
2022-08-29T01:20:05.470Z,981.93
2022-08-29T01:21:05.600Z,981.91
2022-08-29T01:22:05.440Z,981.97
2022-08-29T01:23:05.490Z,981.96
2022-08-29T01:24:05.403Z,981.93
2022-08-29T01:25:05.490Z,981.98
2022-08-29T01:26:05.399Z,981.96
2022-08-29T01:27:05.570Z,981.99
2022-08-29T01:28:05.339Z,981.99
2022-08-29T01:29:05.491Z,982.01
2022-08-29T01:30:05.755Z,982.03
2022-08-29T01:31:05.496Z,982.02
2022-08-29T01:32:05.555Z,982.00
2022-08-29T01:33:05.505Z,982.04
2022-08-29T01:34:05.325Z,981.99
2022-08-29T01:35:05.255Z,982.01
2022-08-29T01:36:05.325Z,981.98
2022-08-29T01:37:05.306Z,982.05
2022-08-29T01:38:05.325Z,981.99
2022-08-29T01:39:05.218Z,982.02
2022-08-29T01:40:05.444Z,982.05
2022-08-29T01:41:05.191Z,982.03
2022-08-29T01:42:05.261Z,982.06
2022-08-29T01:43:05.171Z,982.06
2022-08-29T01:44:05.340Z,982.10
2022-08-29T01:45:05.171Z,982.13
2022-08-29T01:46:05.187Z,982.16
2022-08-29T01:47:05.242Z,982.16
2022-08-29T01:48:05.331Z,982.13
2022-08-29T01:49:05.170Z,982.14
2022-08-29T01:50:05.050Z,982.18
2022-08-29T01:51:05.171Z,982.14
2022-08-29T01:52:05.036Z,982.09
2022-08-29T01:53:05.105Z,982.15
2022-08-29T01:54:05.016Z,982.16
2022-08-29T01:55:04.999Z,982.14
2022-08-29T01:56:05.016Z,982.10
2022-08-29T01:57:07.613Z,982.11
2022-08-29T01:58:05.029Z,982.09
2022-08-29T01:59:05.235Z,982.09
2022-08-29T02:00:05.004Z,982.12
2022-08-29T02:01:05.299Z,982.13
2022-08-29T02:02:05.097Z,982.13
2022-08-29T02:03:04.890Z,982.08
2022-08-29T02:04:04.940Z,982.10
2022-08-29T02:05:04.861Z,982.08
2022-08-29T02:06:05.011Z,982.08
2022-08-29T02:07:07.301Z,982.07
2022-08-29T02:08:05.010Z,982.10
2022-08-29T02:09:04.921Z,982.07
2022-08-29T02:10:05.010Z,982.08
2022-08-29T02:11:04.852Z,982.03
2022-08-29T02:12:04.751Z,982.03
2022-08-29T02:13:04.864Z,982.09
2022-08-29T02:14:04.835Z,982.07
2022-08-29T02:15:04.864Z,982.11
2022-08-29T02:16:04.778Z,982.06
2022-08-29T02:17:04.727Z,982.08
2022-08-29T02:18:04.686Z,982.10
2022-08-29T02:19:04.665Z,982.08
2022-08-29T02:20:04.746Z,982.11
2022-08-29T02:21:04.635Z,982.08
2022-08-29T02:22:04.697Z,982.07
2022-08-29T02:23:04.855Z,982.07
2022-08-29T02:24:23.991Z,982.01
2022-08-29T02:25:04.682Z,982.03
2022-08-29T02:26:04.701Z,982.05
2022-08-29T02:27:04.849Z,982.06
2022-08-29T02:28:04.540Z,982.07
2022-08-29T02:29:04.540Z,982.05
2022-08-29T02:30:04.520Z,982.08
2022-08-29T02:31:04.661Z,982.06
2022-08-29T02:32:04.482Z,982.04
2022-08-29T02:33:04.968Z,982.02
2022-08-29T02:34:04.461Z,982.02
2022-08-29T02:35:04.525Z,982.05
2022-08-29T02:36:04.526Z,982.06
2022-08-29T02:37:04.426Z,982.06
2022-08-29T02:38:04.702Z,982.09
2022-08-29T02:39:04.546Z,982.06
2022-08-29T02:40:04.471Z,982.07
2022-08-29T02:41:04.536Z,982.07
2022-08-29T02:42:04.466Z,982.09
2022-08-29T02:43:04.528Z,982.07
2022-08-29T02:44:04.375Z,982.09
2022-08-29T02:45:04.314Z,982.06
2022-08-29T02:46:04.381Z,982.09
2022-08-29T02:47:04.755Z,982.08
2022-08-29T02:48:04.370Z,982.05
2022-08-29T02:49:04.271Z,982.04
2022-08-29T02:50:04.371Z,982.03
2022-08-29T02:51:04.241Z,981.98
2022-08-29T02:52:04.370Z,982.06
2022-08-29T02:53:04.300Z,981.98
2022-08-29T02:54:04.370Z,981.99
2022-08-29T02:55:04.209Z,981.98
2022-08-29T02:56:04.375Z,981.94
2022-08-29T02:57:04.217Z,981.95
2022-08-29T02:58:04.386Z,981.99
2022-08-29T02:59:04.285Z,981.98
2022-08-29T03:00:04.364Z,981.98
2022-08-29T03:01:04.266Z,981.93
2022-08-29T03:02:04.172Z,981.98
2022-08-29T03:03:04.205Z,982.01
2022-08-29T03:04:04.115Z,981.93
2022-08-29T03:05:04.216Z,981.93
2022-08-29T03:06:04.050Z,981.95
2022-08-29T03:07:04.217Z,981.93
2022-08-29T03:08:04.071Z,981.97
2022-08-29T03:09:04.301Z,981.93
2022-08-29T03:10:04.051Z,981.97
2022-08-29T03:11:03.991Z,981.98
2022-08-29T03:12:04.060Z,981.97
2022-08-29T03:13:03.972Z,981.94
2022-08-29T03:14:03.930Z,981.97
2022-08-29T03:15:03.991Z,981.94
2022-08-29T03:16:04.130Z,981.99
2022-08-29T03:17:03.900Z,981.97
2022-08-29T03:18:04.045Z,981.99
2022-08-29T03:19:03.905Z,981.97
2022-08-29T03:20:03.866Z,981.97
2022-08-29T03:21:03.966Z,982.00
2022-08-29T03:22:04.070Z,981.97
2022-08-29T03:23:03.877Z,981.97
2022-08-29T03:24:03.806Z,982.01
2022-08-29T03:25:03.886Z,982.01
2022-08-29T03:26:04.125Z,982.06
2022-08-29T03:27:03.917Z,981.97
2022-08-29T03:28:03.766Z,982.04
2022-08-29T03:29:03.890Z,982.05
2022-08-29T03:30:03.730Z,982.04
2022-08-29T03:31:03.842Z,982.05
2022-08-29T03:32:03.720Z,982.06
2022-08-29T03:33:03.900Z,982.05
2022-08-29T03:34:03.721Z,982.08
2022-08-29T03:35:03.660Z,982.06
2022-08-29T03:36:03.643Z,982.05
2022-08-29T03:37:03.960Z,982.09
2022-08-29T03:38:03.721Z,982.10
2022-08-29T03:39:03.610Z,982.10
2022-08-29T03:40:03.769Z,982.09
2022-08-29T03:41:03.586Z,982.12
2022-08-29T03:42:03.579Z,982.18
2022-08-29T03:43:03.645Z,982.19
2022-08-29T03:44:03.739Z,982.12
2022-08-29T03:45:03.582Z,982.20
2022-08-29T03:46:03.557Z,982.10
2022-08-29T03:47:03.566Z,982.21
2022-08-29T03:48:03.805Z,982.17
2022-08-29T03:49:03.565Z,982.15
2022-08-29T03:50:03.455Z,982.20
2022-08-29T03:51:03.570Z,982.18
2022-08-29T03:52:03.430Z,982.14
2022-08-29T03:53:03.501Z,982.17
2022-08-29T03:54:03.411Z,982.26
2022-08-29T03:55:03.400Z,982.18
2022-08-29T03:56:03.421Z,982.22
2022-08-29T03:57:03.371Z,982.21
2022-08-29T03:58:03.433Z,982.26
2022-08-29T03:59:03.435Z,982.30
2022-08-29T04:00:03.410Z,982.27
2022-08-29T04:01:03.586Z,982.32
2022-08-29T04:02:03.487Z,982.25
2022-08-29T04:03:03.655Z,982.26
2022-08-29T04:04:03.405Z,982.27
2022-08-29T04:05:07.706Z,982.30
2022-08-29T04:06:03.245Z,982.33
2022-08-29T04:07:03.255Z,982.30
2022-08-29T04:08:03.416Z,982.40
2022-08-29T04:09:03.245Z,982.36
2022-08-29T04:10:03.175Z,982.40
2022-08-29T04:11:03.326Z,982.39
2022-08-29T04:12:03.404Z,982.42
2022-08-29T04:13:03.271Z,982.42
2022-08-29T04:14:03.410Z,982.44
2022-08-29T04:15:03.264Z,982.47
2022-08-29T04:16:03.300Z,982.46
2022-08-29T04:17:03.102Z,982.46
2022-08-29T04:18:03.101Z,982.47
2022-08-29T04:19:03.080Z,982.50
2022-08-29T04:20:03.090Z,982.43
2022-08-29T04:21:03.110Z,982.46
2022-08-29T04:22:03.090Z,982.48
2022-08-29T04:23:03.026Z,982.47
2022-08-29T04:24:03.115Z,982.48
2022-08-29T04:25:03.257Z,982.46
2022-08-29T04:26:31.290Z,982.46
2022-08-29T04:27:02.975Z,982.47
2022-08-29T04:28:03.087Z,982.46
2022-08-29T04:29:02.946Z,982.51
2022-08-29T04:30:03.075Z,982.49
2022-08-29T04:31:03.110Z,982.46
2022-08-29T04:32:02.906Z,982.52
2022-08-29T04:33:02.935Z,982.51
2022-08-29T04:34:02.910Z,982.54
2022-08-29T04:35:02.934Z,982.49
2022-08-29T04:36:03.161Z,982.53
2022-08-29T04:37:02.929Z,982.51
2022-08-29T04:38:02.821Z,982.56
2022-08-29T04:39:02.930Z,982.55
2022-08-29T04:40:02.816Z,982.53
2022-08-29T04:41:02.988Z,982.57
2022-08-29T04:42:02.840Z,982.62
2022-08-29T04:43:02.751Z,982.63
2022-08-29T04:44:02.760Z,982.61
2022-08-29T04:45:02.935Z,982.61
2022-08-29T04:46:02.838Z,982.60
2022-08-29T04:47:02.959Z,982.57
2022-08-29T04:48:03.764Z,982.60
2022-08-29T04:49:04.473Z,982.65
2022-08-29T04:50:02.844Z,982.64
2022-08-29T04:51:02.929Z,982.71
2022-08-29T04:52:02.775Z,982.68
2022-08-29T04:53:02.675Z,982.70
2022-08-29T04:54:02.606Z,982.72
2022-08-29T04:55:02.605Z,982.71
2022-08-29T04:56:02.601Z,982.71
2022-08-29T04:57:02.621Z,982.63
2022-08-29T04:58:04.000Z,982.65
2022-08-29T04:59:02.609Z,982.76
2022-08-29T05:00:02.771Z,982.70
2022-08-29T05:01:02.612Z,982.69
2022-08-29T05:02:02.548Z,982.69
2022-08-29T05:03:02.617Z,982.71
2022-08-29T05:04:02.470Z,982.72
2022-08-29T05:05:02.610Z,982.75
2022-08-29T05:06:02.452Z,982.80
2022-08-29T05:07:02.436Z,982.78
2022-08-29T05:08:02.535Z,982.74
2022-08-29T05:09:02.414Z,982.72
2022-08-29T05:10:02.450Z,982.72
2022-08-29T05:11:02.606Z,982.69
2022-08-29T05:12:04.178Z,982.67
2022-08-29T05:13:02.614Z,982.68
2022-08-29T05:14:02.558Z,982.67
2022-08-29T05:15:02.335Z,982.66
2022-08-29T05:16:02.517Z,982.66
2022-08-29T05:17:02.288Z,982.68
2022-08-29T05:18:02.270Z,982.62
2022-08-29T05:19:02.289Z,982.69
2022-08-29T05:20:02.540Z,982.68
2022-08-29T05:21:02.300Z,982.66
2022-08-29T05:22:02.220Z,982.66
2022-08-29T05:23:02.298Z,982.75
2022-08-29T05:24:02.460Z,982.70
2022-08-29T05:25:02.290Z,982.72
2022-08-29T05:26:02.280Z,982.73
2022-08-29T05:27:02.151Z,982.78
2022-08-29T05:28:02.160Z,982.73
2022-08-29T05:29:02.305Z,982.74
2022-08-29T05:30:02.146Z,982.74
2022-08-29T05:31:02.418Z,982.77
2022-08-29T05:32:02.135Z,982.73
2022-08-29T05:33:02.075Z,982.72
2022-08-29T05:34:02.139Z,982.78
2022-08-29T05:35:02.286Z,982.77
2022-08-29T05:36:02.128Z,982.75
2022-08-29T05:37:02.105Z,982.77
2022-08-29T05:38:05.834Z,982.76
2022-08-29T05:39:01.995Z,982.77
2022-08-29T05:40:02.206Z,982.83
2022-08-29T05:41:01.980Z,982.80
2022-08-29T05:42:02.139Z,982.79
2022-08-29T05:43:02.049Z,982.81
2022-08-29T05:44:01.931Z,982.76
2022-08-29T05:45:01.959Z,982.77
2022-08-29T05:46:01.990Z,982.75
2022-08-29T05:47:01.970Z,982.85
2022-08-29T05:48:01.929Z,982.81
2022-08-29T05:49:01.976Z,982.78
2022-08-29T05:50:02.128Z,982.78
2022-08-29T05:51:01.977Z,982.78
2022-08-29T05:52:01.822Z,982.82
2022-08-29T05:53:02.052Z,982.81
2022-08-29T05:54:01.807Z,982.79
2022-08-29T05:55:01.785Z,982.80
2022-08-29T05:56:01.817Z,982.80
2022-08-29T05:57:01.790Z,982.86
2022-08-29T05:58:01.794Z,982.83
2022-08-29T05:59:01.806Z,982.85
2022-08-29T06:00:01.726Z,982.86
2022-08-29T06:01:01.966Z,982.89
2022-08-29T06:02:01.810Z,982.92
2022-08-29T06:03:01.853Z,982.91
2022-08-29T06:04:02.012Z,982.91
2022-08-29T06:05:01.760Z,982.88
2022-08-29T06:06:01.810Z,982.92
2022-08-29T06:07:01.700Z,982.94
2022-08-29T06:08:01.810Z,982.95
2022-08-29T06:09:01.654Z,982.88
2022-08-29T06:10:03.679Z,982.90
2022-08-29T06:11:01.641Z,982.87
2022-08-29T06:12:01.600Z,982.84
2022-08-29T06:13:01.656Z,982.93
2022-08-29T06:14:01.545Z,982.94
2022-08-29T06:15:01.764Z,982.87
2022-08-29T06:16:01.603Z,982.91
2022-08-29T06:17:01.485Z,982.89
2022-08-29T06:18:01.496Z,982.92
2022-08-29T06:19:01.645Z,982.97
2022-08-29T06:20:01.586Z,982.92
2022-08-29T06:21:01.675Z,983.00
2022-08-29T06:22:01.495Z,982.92
2022-08-29T06:23:01.690Z,982.94
2022-08-29T06:24:01.499Z,982.98
2022-08-29T06:25:08.737Z,982.95
2022-08-29T06:26:01.492Z,983.03
2022-08-29T06:27:01.359Z,983.01
2022-08-29T06:28:01.341Z,983.09
2022-08-29T06:29:01.331Z,983.12
2022-08-29T06:30:02.133Z,983.11
2022-08-29T06:31:01.327Z,983.11
2022-08-29T06:32:01.282Z,983.17
2022-08-29T06:33:01.321Z,983.09
2022-08-29T06:34:01.276Z,983.20
2022-08-29T06:35:01.327Z,983.23
2022-08-29T06:36:01.593Z,983.14
2022-08-29T06:37:01.334Z,983.19
2022-08-29T06:38:01.215Z,983.16
2022-08-29T06:39:01.335Z,983.22
2022-08-29T06:40:01.217Z,983.22
2022-08-29T06:41:01.325Z,983.25
2022-08-29T06:42:01.215Z,983.27
2022-08-29T06:43:01.135Z,983.27
2022-08-29T06:44:01.178Z,983.32
2022-08-29T06:45:01.140Z,983.29
2022-08-29T06:46:01.255Z,983.35
2022-08-29T06:47:01.399Z,983.34
2022-08-29T06:48:01.181Z,983.32
2022-08-29T06:49:01.340Z,983.32
2022-08-29T06:50:01.041Z,983.25
2022-08-29T06:51:01.060Z,983.32
2022-08-29T06:52:01.240Z,983.34
2022-08-29T06:53:26.090Z,983.30
2022-08-29T06:54:01.047Z,983.33
2022-08-29T06:55:01.005Z,983.33
2022-08-29T06:56:01.186Z,983.29
2022-08-29T06:57:01.094Z,983.29
2022-08-29T06:58:00.945Z,983.27
2022-08-29T06:59:01.005Z,983.33
2022-08-29T07:00:01.175Z,983.35
2022-08-29T07:01:01.139Z,983.37
2022-08-29T07:02:01.055Z,983.34
2022-08-29T07:03:00.935Z,983.32
2022-08-29T07:04:00.870Z,983.33
2022-08-29T07:05:01.028Z,983.35
2022-08-29T07:06:00.850Z,983.29
2022-08-29T07:07:00.829Z,983.34
2022-08-29T07:08:00.911Z,983.30
2022-08-29T07:09:00.800Z,983.30
2022-08-29T07:10:00.851Z,983.31
2022-08-29T07:11:01.009Z,983.35
2022-08-29T07:12:00.840Z,983.34
2022-08-29T07:13:00.811Z,983.36
2022-08-29T07:14:00.845Z,983.34
2022-08-29T07:15:00.805Z,983.35
2022-08-29T07:16:00.997Z,983.40
2022-08-29T07:17:00.718Z,983.39
2022-08-29T07:18:00.844Z,983.35
2022-08-29T07:19:00.757Z,983.35
2022-08-29T07:20:00.836Z,983.32
2022-08-29T07:21:00.685Z,983.36
2022-08-29T07:22:00.626Z,983.37
2022-08-29T07:23:00.700Z,983.41
2022-08-29T07:24:00.921Z,983.38
2022-08-29T07:25:00.690Z,983.39
2022-08-29T07:26:00.840Z,983.42
2022-08-29T07:27:00.691Z,983.48
2022-08-29T07:28:00.581Z,983.46
2022-08-29T07:29:00.690Z,983.46
2022-08-29T07:30:00.601Z,983.38
2022-08-29T07:31:00.575Z,983.32
2022-08-29T07:32:00.534Z,983.34
2022-08-29T07:33:00.705Z,983.32
2022-08-29T07:34:02.716Z,983.32
2022-08-29T07:35:00.535Z,983.38
2022-08-29T07:36:01.263Z,983.46
2022-08-29T07:37:00.445Z,983.40
2022-08-29T07:38:00.525Z,983.37
2022-08-29T07:39:00.416Z,983.39
2022-08-29T07:40:00.668Z,983.43
2022-08-29T07:41:00.378Z,983.38
2022-08-29T07:42:00.541Z,983.44
2022-08-29T07:43:00.371Z,983.41
2022-08-29T07:44:00.358Z,983.42
2022-08-29T07:45:00.453Z,983.39
2022-08-29T07:46:00.367Z,983.43
2022-08-29T07:47:00.360Z,983.46
2022-08-29T07:48:00.314Z,983.45
2022-08-29T07:49:00.370Z,983.47
2022-08-29T07:50:00.261Z,983.47
2022-08-29T07:51:00.472Z,983.45
2022-08-29T07:52:00.535Z,983.43
2022-08-29T07:53:00.364Z,983.51
2022-08-29T07:54:00.225Z,983.36
2022-08-29T07:55:00.226Z,983.40
2022-08-29T07:56:00.213Z,983.42
2022-08-29T07:57:00.435Z,983.45
2022-08-29T07:58:00.206Z,983.48
2022-08-29T07:59:00.153Z,983.53
2022-08-29T08:00:00.211Z,983.50
2022-08-29T08:01:00.444Z,983.50
2022-08-29T08:02:00.401Z,983.43
2022-08-29T08:03:00.207Z,983.46
2022-08-29T08:04:00.229Z,983.44
2022-08-29T08:05:00.124Z,983.41
2022-08-29T08:06:00.214Z,983.45
2022-08-29T08:07:00.119Z,983.40
2022-08-29T08:08:07.587Z,983.45
2022-08-29T08:09:00.045Z,983.50
2022-08-29T08:10:00.049Z,983.49
2022-08-29T08:11:00.115Z,983.46
2022-08-29T08:12:00.077Z,983.52
2022-08-29T08:13:00.049Z,983.44
2022-08-29T08:13:59.975Z,983.52
2022-08-29T08:15:00.056Z,983.51
2022-08-29T08:16:00.208Z,983.55
2022-08-29T08:17:00.225Z,983.56
2022-08-29T08:18:00.205Z,983.55
2022-08-29T08:19:00.059Z,983.50
2022-08-29T08:19:59.901Z,983.56
2022-08-29T08:20:59.890Z,983.55
2022-08-29T08:21:59.959Z,983.52
2022-08-29T08:22:59.875Z,983.55
2022-08-29T08:23:59.891Z,983.53
2022-08-29T08:24:59.820Z,983.60
2022-08-29T08:25:59.892Z,983.55
2022-08-29T08:26:59.849Z,983.55
2022-08-29T08:27:59.896Z,983.57
2022-08-29T08:29:00.062Z,983.56
2022-08-29T08:30:00.091Z,983.59
2022-08-29T08:31:05.065Z,983.58
2022-08-29T08:31:59.807Z,983.61
2022-08-29T08:32:59.727Z,983.58
2022-08-29T08:33:59.707Z,983.60
2022-08-29T08:34:59.726Z,983.50
2022-08-29T08:35:59.681Z,983.49
2022-08-29T08:36:59.822Z,983.58
2022-08-29T08:37:59.892Z,983.63
2022-08-29T08:38:59.731Z,983.55
2022-08-29T08:39:59.955Z,983.60
2022-08-29T08:40:59.734Z,983.61
2022-08-29T08:41:59.682Z,983.68
2022-08-29T08:42:59.731Z,983.69
2022-08-29T08:43:59.569Z,983.56
2022-08-29T08:44:59.572Z,983.56
2022-08-29T08:45:59.583Z,983.56
2022-08-29T08:46:59.636Z,983.62
2022-08-29T08:47:59.586Z,983.64
2022-08-29T08:48:59.526Z,983.68
2022-08-29T08:49:59.568Z,983.68
2022-08-29T08:50:59.495Z,983.65
2022-08-29T08:51:59.646Z,983.58
2022-08-29T08:52:59.742Z,983.63
2022-08-29T08:53:59.565Z,983.63
2022-08-29T08:54:59.461Z,983.61
2022-08-29T08:55:59.580Z,983.61
2022-08-29T08:57:02.104Z,983.71
2022-08-29T08:57:59.570Z,983.69
2022-08-29T08:58:59.432Z,983.58
2022-08-29T08:59:59.402Z,983.56
2022-08-29T09:00:59.630Z,983.55
2022-08-29T09:01:59.636Z,983.58
2022-08-29T09:02:59.411Z,983.62
2022-08-29T09:03:59.345Z,983.56
2022-08-29T09:04:59.434Z,983.54
2022-08-29T09:05:59.575Z,983.53
2022-08-29T09:06:59.506Z,983.60
2022-08-29T09:07:59.285Z,983.66
2022-08-29T09:08:59.286Z,983.60
2022-08-29T09:09:59.255Z,983.58
2022-08-29T09:10:59.430Z,983.63
2022-08-29T09:11:59.326Z,983.58
2022-08-29T09:12:59.216Z,983.66
2022-08-29T09:13:59.280Z,983.62
2022-08-29T09:14:59.420Z,983.66
2022-08-29T09:15:59.260Z,983.65
2022-08-29T09:16:59.279Z,983.64
2022-08-29T09:17:59.253Z,983.70
2022-08-29T09:18:59.130Z,983.68
2022-08-29T09:19:59.241Z,983.67
2022-08-29T09:20:59.110Z,983.61
2022-08-29T09:21:59.325Z,983.65
2022-08-29T09:22:59.098Z,983.62
2022-08-29T09:23:59.095Z,983.63
2022-08-29T09:24:59.098Z,983.65
2022-08-29T09:25:59.125Z,983.62
2022-08-29T09:26:59.128Z,983.63
2022-08-29T09:27:59.255Z,983.59
2022-08-29T09:28:59.131Z,983.67
2022-08-29T09:29:59.005Z,983.65
2022-08-29T09:30:59.180Z,983.67
2022-08-29T09:31:59.295Z,983.64
2022-08-29T09:32:59.101Z,983.67
2022-08-29T09:33:58.960Z,983.70
2022-08-29T09:35:08.415Z,983.70
2022-08-29T09:35:59.003Z,983.69
2022-08-29T09:36:58.912Z,983.66
2022-08-29T09:37:58.921Z,983.71
2022-08-29T09:38:59.084Z,983.71
2022-08-29T09:39:59.045Z,983.77
2022-08-29T09:40:59.195Z,983.78
2022-08-29T09:41:58.930Z,983.70
2022-08-29T09:42:59.086Z,983.72
2022-08-29T09:43:58.936Z,983.75
2022-08-29T09:44:58.824Z,983.71
2022-08-29T09:45:58.938Z,983.77
2022-08-29T09:46:59.085Z,983.66
2022-08-29T09:47:58.925Z,983.74
2022-08-29T09:48:58.801Z,983.70
2022-08-29T09:49:58.751Z,983.67
2022-08-29T09:50:58.831Z,983.70
2022-08-29T09:51:58.839Z,983.68
2022-08-29T09:52:58.827Z,983.64
2022-08-29T09:53:58.961Z,983.65
2022-08-29T09:54:58.771Z,983.57
2022-08-29T09:55:58.680Z,983.53
2022-08-29T09:56:58.829Z,983.60
2022-08-29T09:57:58.986Z,983.53
2022-08-29T09:58:58.806Z,983.52
2022-08-29T09:59:58.676Z,983.59
2022-08-29T10:00:58.649Z,983.54
2022-08-29T10:01:58.795Z,983.59
2022-08-29T10:02:58.587Z,983.62
2022-08-29T10:03:58.605Z,983.62
2022-08-29T10:04:58.576Z,983.59
2022-08-29T10:05:58.620Z,983.57
2022-08-29T10:06:58.540Z,983.57
2022-08-29T10:07:58.743Z,983.61
2022-08-29T10:08:58.770Z,983.60
2022-08-29T10:09:58.620Z,983.54
2022-08-29T10:10:58.511Z,983.57
2022-08-29T10:11:58.471Z,983.59
2022-08-29T10:12:58.531Z,983.52
2022-08-29T10:13:58.601Z,983.55
2022-08-29T10:14:58.446Z,983.53
2022-08-29T10:15:58.435Z,983.52
2022-08-29T10:16:58.553Z,983.50
2022-08-29T10:17:58.626Z,983.41
2022-08-29T10:18:58.521Z,983.45
2022-08-29T10:19:58.375Z,983.51
2022-08-29T10:20:58.445Z,983.41
2022-08-29T10:21:58.336Z,983.44
2022-08-29T10:22:58.445Z,983.37
2022-08-29T10:23:58.393Z,983.38
2022-08-29T10:24:58.470Z,983.40
2022-08-29T10:25:58.312Z,983.38
2022-08-29T10:26:58.461Z,983.33
2022-08-29T10:27:58.300Z,983.37
2022-08-29T10:28:58.532Z,983.45
2022-08-29T10:29:58.293Z,983.37
2022-08-29T10:30:58.230Z,983.42
2022-08-29T10:31:58.393Z,983.38
2022-08-29T10:32:58.466Z,983.34
2022-08-29T10:33:58.385Z,983.39
2022-08-29T10:34:58.186Z,983.35
2022-08-29T10:35:58.305Z,983.34
2022-08-29T10:36:58.157Z,983.31
2022-08-29T10:37:58.285Z,983.29
2022-08-29T10:38:58.206Z,983.29
2022-08-29T10:39:58.396Z,983.27
2022-08-29T10:40:58.151Z,983.27
2022-08-29T10:41:58.301Z,983.23
2022-08-29T10:42:58.141Z,983.31
2022-08-29T10:43:58.371Z,983.31
2022-08-29T10:44:58.144Z,983.31
2022-08-29T10:45:58.128Z,983.32
2022-08-29T10:46:58.122Z,983.31
2022-08-29T10:47:58.021Z,983.28
2022-08-29T10:48:58.216Z,983.37
2022-08-29T10:49:57.981Z,983.34
2022-08-29T10:50:58.133Z,983.33
2022-08-29T10:51:57.975Z,983.36
2022-08-29T10:52:58.126Z,983.32
2022-08-29T10:53:57.974Z,983.32
2022-08-29T10:54:58.196Z,983.33
2022-08-29T10:55:57.965Z,983.35
2022-08-29T10:56:57.898Z,983.35
2022-08-29T10:57:57.966Z,983.31
2022-08-29T10:58:58.175Z,983.32
2022-08-29T10:59:58.071Z,983.34
2022-08-29T11:00:58.210Z,983.29
2022-08-29T11:01:57.982Z,983.28
2022-08-29T11:02:57.823Z,983.27
2022-08-29T11:03:57.875Z,983.26
2022-08-29T11:04:57.880Z,983.24
2022-08-29T11:05:57.780Z,983.25
2022-08-29T11:06:57.808Z,983.27
2022-08-29T11:07:57.758Z,983.18
2022-08-29T11:08:57.809Z,983.21
2022-08-29T11:09:58.066Z,983.19
2022-08-29T11:10:57.805Z,983.24
2022-08-29T11:11:57.717Z,983.20
2022-08-29T11:12:57.816Z,983.20
2022-08-29T11:14:00.224Z,983.25
2022-08-29T11:14:57.729Z,983.23
2022-08-29T11:15:57.704Z,983.19
2022-08-29T11:16:57.616Z,983.21
2022-08-29T11:17:57.657Z,983.19
2022-08-29T11:18:57.641Z,983.17
2022-08-29T11:19:57.751Z,983.16
2022-08-29T11:20:57.591Z,983.21
2022-08-29T11:21:57.661Z,983.22
2022-08-29T11:22:57.810Z,983.16
2022-08-29T11:23:57.650Z,983.18
2022-08-29T11:24:57.632Z,983.17
2022-08-29T11:25:57.661Z,983.22
2022-08-29T11:26:57.491Z,983.22
2022-08-29T11:27:57.493Z,983.17
2022-08-29T11:28:57.486Z,983.14
2022-08-29T11:29:57.465Z,983.10
2022-08-29T11:30:57.526Z,983.13
2022-08-29T11:31:57.503Z,983.09
2022-08-29T11:32:57.496Z,983.08
2022-08-29T11:33:57.404Z,983.12
2022-08-29T11:34:57.553Z,983.08
2022-08-29T11:36:01.155Z,983.02
2022-08-29T11:36:57.560Z,983.02
2022-08-29T11:37:57.661Z,983.06
2022-08-29T11:38:57.350Z,983.05
2022-08-29T11:39:57.435Z,983.01
2022-08-29T11:41:58.557Z,983.06
2022-08-29T11:42:57.361Z,983.07
2022-08-29T11:43:57.331Z,983.08
2022-08-29T11:44:57.271Z,983.08
2022-08-29T11:45:57.341Z,983.11
2022-08-29T11:46:57.792Z,983.07
2022-08-29T11:47:57.426Z,983.16
2022-08-29T11:48:59.802Z,983.15
2022-08-29T11:49:57.336Z,983.15
2022-08-29T11:50:57.190Z,983.09
2022-08-29T11:51:57.335Z,983.10
2022-08-29T11:52:57.166Z,983.07
2022-08-29T11:53:57.216Z,982.99
2022-08-29T11:54:57.166Z,983.00
2022-08-29T11:55:57.280Z,982.99
2022-08-29T11:56:57.182Z,983.04
2022-08-29T11:58:01.757Z,983.04
2022-08-29T11:58:57.242Z,983.12
2022-08-29T11:59:57.062Z,983.16
2022-08-29T12:00:57.041Z,983.13
2022-08-29T12:01:57.071Z,983.10
2022-08-29T12:02:57.161Z,983.12
2022-08-29T12:03:57.103Z,983.15
2022-08-29T12:04:57.001Z,983.07
2022-08-29T12:05:57.006Z,983.16
2022-08-29T12:06:57.180Z,983.13
2022-08-29T12:07:58.515Z,983.13
2022-08-29T12:08:58.308Z,983.12
2022-08-29T12:09:57.007Z,983.08
2022-08-29T12:10:56.924Z,983.13
2022-08-29T12:11:57.007Z,983.10
2022-08-29T12:12:57.186Z,983.07
2022-08-29T12:13:57.095Z,983.06
2022-08-29T12:14:56.891Z,983.07
2022-08-29T12:15:56.924Z,983.10
2022-08-29T12:16:56.852Z,983.04
2022-08-29T12:18:04.405Z,983.05
2022-08-29T12:18:56.850Z,983.02
2022-08-29T12:19:56.883Z,983.04
2022-08-29T12:20:57.001Z,982.97
2022-08-29T12:21:57.010Z,983.04
2022-08-29T12:22:56.841Z,982.99
2022-08-29T12:23:56.740Z,982.99
2022-08-29T12:24:57.672Z,983.02
2022-08-29T12:26:21.090Z,983.03
2022-08-29T12:26:56.716Z,983.02
2022-08-29T12:27:56.697Z,982.98
2022-08-29T12:28:56.851Z,983.00